This demonstration page uses our WeatherBlox Daily Observations layout. Learn more.

36.17497, -115.13722

Hourly Observations for September 12, 2019

Temp ( °F °C ) Dew Point ( °F °C ) Humidity (%) Winds ( mph kmh ) Pressure ( in mb ) Visibility ( mi km ) Precip ( " mm )
12:53 am 00:53 Clear 74 23.3 30 -1.1 20 20 NNW 8 13 30 1016 10 16.09344 0 0
1:53 am 01:53 Clear 75 23.9 26 -3.3 16 16 Calm 30.03 1017 10 16.09344 0 0
2:53 am 02:53 Clear 72 22.2 30 -1.1 21 21 WSW 5 7 30.06 1018 10 16.09344 0 0
3:53 am 03:53 Clear 72 22.2 29 -1.7 20 20 SW 3 6 30.06 1018 10 16.09344 0 0
4:53 am 04:53 Clear 71 21.7 30 -1.1 22 22 SSW 3 6 30.09 1019 10 16.09344 0 0
5:53 am 05:53 Clear 69 20.6 29 -1.7 22 22 W 8 13 30.09 1019 10 16.09344 0 0
6:53 am 06:53 Sunny 71 21.7 26 -3.3 19 19 NNW 9 15 30.12 1020 10 16.09344 0 0
7:53 am 07:53 Sunny 74 23.3 30 -1.1 20 20 NW 7 11 30.12 1020 10 16.09344 0 0
8:53 am 08:53 Sunny 79 26.1 34 1.1 20 20 NNW 8 13 30.15 1021 10 16.09344 0 0
9:53 am 09:53 Sunny 83 28.3 32 0 16 16 VRB 3 6 30.15 1021 10 16.09344 0 0
10:53 am 10:53 Sunny 84 28.9 31 -0.6 15 15 SSE 3 6 30.15 1021 10 16.09344 0 0
11:53 am 11:53 Sunny 87 30.6 30 -1.1 13 13 ENE 9 15 30.12 1020 10 16.09344 0 0
12:53 pm 12:53 Sunny 89 31.7 29 -1.7 11 11 NNE 10 17 30.09 1019 10 16.09344 0 0
1:53 pm 13:53 Sunny 90 32.2 28 -2.2 11 11 ENE 9 15 30.06 1018 10 16.09344 0 0
2:53 pm 14:53 Sunny 89 31.7 28 -2.2 11 11 E 3 6 30.03 1017 10 16.09344 0 0
3:53 pm 15:53 Sunny 90 32.2 28 -2.2 11 11 S 5 7 30 1016 10 16.09344 0 0
4:53 pm 16:53 Sunny 90 32.2 27 -2.8 10 10 S 5 7 30 1016 10 16.09344 0 0
5:53 pm 17:53 Sunny 91 32.8 26 -3.3 9 9 ESE 8 13 30 1016 10 16.09344 0 0
6:53 pm 18:53 Sunny 88 31.1 25 -3.9 10 10 E 7 11 30 1016 10 16.09344 0 0
7:53 pm 19:53 Clear 86 30 24 -4.4 10 10 SE 3 6 30 1016 10 16.09344 0 0
8:53 pm 20:53 Clear 84 28.9 28 -2.2 13 13 W 5 7 30 1016 10 16.09344 0 0
9:53 pm 21:53 Clear 80 26.7 32 0 17 17 N 5 7 30 1016 10 16.09344 0 0
10:53 pm 22:53 Clear 79 26.1 30 -1.1 17 17 WNW 5 7 30 1016 10 16.09344 0 0
11:53 pm 23:53 Clear 76 24.4 29 -1.7 18 18 WNW 7 11 30 1016 10 16.09344 0 0

Powered by AerisWeather